createdAt,value
2022-09-20T00:24:33.654Z,4.55
2022-09-20T00:54:36.452Z,3.33
2022-09-20T01:24:39.986Z,5.10
2022-09-20T01:54:42.672Z,4.23
2022-09-20T02:24:47.023Z,3.17
2022-09-20T02:54:49.730Z,3.30
2022-09-20T03:24:53.620Z,4.13
2022-09-20T03:54:56.676Z,3.18
2022-09-20T04:25:00.550Z,2.60
2022-09-20T04:55:03.219Z,5.00
2022-09-20T05:25:07.139Z,6.13
2022-09-20T05:55:09.800Z,6.28
2022-09-20T06:25:13.934Z,9.47
2022-09-20T06:55:16.778Z,9.07
2022-09-20T07:25:20.588Z,8.43
2022-09-20T07:55:23.275Z,7.85
2022-09-20T08:25:26.797Z,6.08
2022-09-20T08:55:30.399Z,5.40
2022-09-20T09:25:34.927Z,5.87
2022-09-20T09:55:37.685Z,4.47
2022-09-20T10:25:42.009Z,2.23
2022-09-20T10:55:45.218Z,2.18
2022-09-20T11:25:50.602Z,3.53
2022-09-20T11:55:53.526Z,2.48
2022-09-20T12:25:58.672Z,2.38
2022-09-20T12:56:01.364Z,3.00
2022-09-20T13:26:05.498Z,1.47
2022-09-20T13:56:08.182Z,1.80
2022-09-20T14:26:12.166Z,3.70
2022-09-20T14:56:15.051Z,1.67
2022-09-20T15:26:19.413Z,4.48
2022-09-20T15:56:22.409Z,1.35
2022-09-20T16:26:25.854Z,2.45
2022-09-20T16:56:29.484Z,1.60
2022-09-20T17:26:32.782Z,2.13
2022-09-20T17:56:35.954Z,2.73
2022-09-20T18:26:39.645Z,1.85
2022-09-20T18:56:42.818Z,4.57
2022-09-20T19:26:45.812Z,3.28
2022-09-20T19:56:48.542Z,3.17
2022-09-20T20:26:51.815Z,4.30
2022-09-20T20:56:54.547Z,4.70
2022-09-20T21:26:58.442Z,4.95
2022-09-20T21:57:01.144Z,4.68
2022-09-20T22:27:04.747Z,5.27
2022-09-20T22:57:07.540Z,4.70
2022-09-20T23:27:11.641Z,4.10
2022-09-20T23:57:14.363Z,4.18
